Time;durP1;ratioP1;P1;durP2;ratioP2;P2;SDS_P1;SDS_P2;PMS_P1;PMS_P2;Temp;Humidity;BMP_temperature;BMP_pressure;BME280_temperature;BME280_humidity;BME280_pressure;Samples;Min_cycle;Max_cycle;Signal;HPM_P1;HPM_P2
2021/12/23 00:01:53;;;;;;;23.87;15.40;;;-1.60;81.60;;;;;;4967438;28;20566;-43
2021/12/23 00:04:19;;;;;;;27.57;17.40;;;-1.60;81.50;;;;;;4963381;28;20467;-43
2021/12/23 00:06:46;;;;;;;45.43;22.57;;;-1.60;81.60;;;;;;4964551;28;20517;-43
2021/12/23 00:09:13;;;;;;;30.20;20.53;;;-1.60;81.80;;;;;;4963411;28;20462;-43
2021/12/23 00:11:40;;;;;;;39.27;23.20;;;-1.60;82.00;;;;;;4964056;28;20454;-43
2021/12/23 00:14:09;;;;;;;37.90;20.03;;;-1.60;82.30;;;;;;4961524;28;20483;-43
2021/12/23 00:24:42;;;;;;;20.30;14.20;;;-1.40;81.60;;;;;;4967098;28;20891;-42
2021/12/23 00:27:10;;;;;;;24.07;15.57;;;-1.40;81.60;;;;;;4964767;28;20703;-43
2021/12/23 00:29:38;;;;;;;23.13;15.07;;;-1.50;81.70;;;;;;4961173;28;20496;-43
2021/12/23 00:32:08;;;;;;;22.47;14.57;;;-1.50;81.70;;;;;;4968363;28;22015;-43
2021/12/23 00:34:36;;;;;;;26.50;16.83;;;-1.50;81.70;;;;;;4965829;28;20516;-43
2021/12/23 00:37:06;;;;;;;23.47;15.40;;;-1.50;82.10;;;;;;4964400;28;20468;-43
2021/12/23 00:39:33;;;;;;;21.83;14.53;;;-1.50;82.40;;;;;;4966094;28;20471;-43
2021/12/23 00:42:06;;;;;;;22.00;15.60;;;-1.50;82.20;;;;;;4964264;28;20493;-43
2021/12/23 00:44:35;;;;;;;28.90;18.60;;;-1.50;82.10;;;;;;4966023;28;20468;-43
2021/12/23 00:47:03;;;;;;;27.17;16.10;;;-1.50;82.30;;;;;;4964678;28;20529;-43
2021/12/23 00:49:29;;;;;;;27.50;16.67;;;-1.50;82.20;;;;;;4962986;28;20512;-43
2021/12/23 00:51:57;;;;;;;29.00;17.40;;;-1.50;82.40;;;;;;4964808;28;20466;-43
2021/12/23 00:54:24;;;;;;;30.50;15.70;;;-1.50;82.40;;;;;;4965891;28;20537;-43
2021/12/23 00:56:51;;;;;;;22.00;15.17;;;-1.50;82.40;;;;;;4961719;28;20823;-43
2021/12/23 00:59:18;;;;;;;24.23;15.47;;;-1.50;82.30;;;;;;4963560;28;20459;-43
2021/12/23 01:01:47;;;;;;;18.77;14.53;;;-1.50;82.30;;;;;;4969678;28;21071;-43
2021/12/23 01:04:15;;;;;;;19.27;14.53;;;-1.50;82.70;;;;;;4963827;28;20556;-43
2021/12/23 01:06:42;;;;;;;20.67;15.73;;;-1.40;82.00;;;;;;4965982;28;20520;-43
2021/12/23 01:09:09;;;;;;;19.70;13.77;;;-1.40;81.60;;;;;;4963928;28;20537;-43
2021/12/23 01:11:36;;;;;;;21.60;15.07;;;-1.40;81.50;;;;;;4965044;28;21095;-43
2021/12/23 01:14:26;;;;;;;25.10;15.63;;;-1.40;81.40;;;;;;4963442;28;20549;-43
2021/12/23 01:19:25;;;;;;;24.33;15.40;;;-1.40;81.50;;;;;;4964600;28;20489;-43
2021/12/23 01:21:52;;;;;;;22.80;14.13;;;-1.40;81.40;;;;;;4964937;28;20482;-42
2021/12/23 01:24:20;;;;;;;18.80;12.70;;;-1.40;81.40;;;;;;4976168;28;20485;-43
2021/12/23 01:26:47;;;;;;;21.10;13.80;;;-1.30;81.50;;;;;;4967376;28;20501;-43
2021/12/23 01:29:13;;;;;;;21.00;13.97;;;-1.30;81.50;;;;;;4969563;28;20454;-43
2021/12/23 01:31:42;;;;;;;19.53;13.70;;;-1.30;81.50;;;;;;4963611;28;20458;-43
2021/12/23 01:34:09;;;;;;;21.73;13.97;;;-1.30;81.50;;;;;;4969678;28;20450;-43
2021/12/23 01:36:36;;;;;;;21.80;13.80;;;-1.30;81.80;;;;;;4963484;28;20554;-43
2021/12/23 01:39:03;;;;;;;22.50;15.10;;;-1.30;81.80;;;;;;4964061;28;20488;-43
2021/12/23 01:41:31;;;;;;;19.53;14.10;;;-1.30;81.90;;;;;;4963430;28;20457;-43
2021/12/23 01:43:58;;;;;;;25.23;14.37;;;-1.30;82.30;;;;;;4965259;28;21060;-43
2021/12/23 01:46:25;;;;;;;25.30;15.20;;;-1.30;82.40;;;;;;4962902;28;20542;-43
2021/12/23 01:48:52;;;;;;;24.03;14.17;;;-1.20;82.50;;;;;;4970330;28;20463;-42
2021/12/23 01:51:19;;;;;;;26.83;15.47;;;-1.20;82.90;;;;;;4962296;28;20469;-43
2021/12/23 01:53:46;;;;;;;22.60;15.10;;;-1.20;83.00;;;;;;4965842;28;20576;-43
2021/12/23 01:56:13;;;;;;;20.03;13.70;;;-1.20;83.00;;;;;;4963806;28;20500;-43
2021/12/23 01:58:41;;;;;;;23.00;16.27;;;-1.20;83.10;;;;;;4968733;28;20546;-43
2021/12/23 02:01:09;;;;;;;18.77;13.70;;;-1.20;83.50;;;;;;4981136;28;20462;-44
2021/12/23 02:03:38;;;;;;;22.23;15.13;;;-1.10;83.20;;;;;;4967485;28;20454;-44
2021/12/23 02:06:05;;;;;;;20.30;15.10;;;-1.10;83.10;;;;;;4967219;28;20537;-44
2021/12/23 02:08:34;;;;;;;19.40;14.57;;;-1.10;83.30;;;;;;4970235;28;20496;-44
2021/12/23 02:11:02;;;;;;;21.73;15.93;;;-1.00;83.10;;;;;;4968217;28;20553;-44
2021/12/23 02:13:29;;;;;;;20.10;14.57;;;-1.00;83.10;;;;;;4950205;28;20968;-44
2021/12/23 02:15:57;;;;;;;22.97;14.10;;;-1.00;83.30;;;;;;4964207;28;20501;-44
2021/12/23 02:18:24;;;;;;;22.33;16.33;;;-1.00;83.40;;;;;;4969257;28;20846;-44
2021/12/23 02:20:53;;;;;;;21.33;17.13;;;-1.00;83.30;;;;;;4968874;28;20522;-44
2021/12/23 02:23:20;;;;;;;25.93;15.70;;;-1.00;83.20;;;;;;4985617;28;20469;-43
2021/12/23 02:25:47;;;;;;;21.53;16.27;;;-1.00;83.00;;;;;;4962419;28;20972;-43
2021/12/23 02:28:19;;;;;;;23.07;15.03;;;-1.00;82.80;;;;;;4967960;28;20487;-43
2021/12/23 02:30:51;;;;;;;24.93;16.53;;;-1.00;82.60;;;;;;4968310;28;20839;-44
2021/12/23 02:33:22;;;;;;;19.43;14.83;;;-1.00;82.70;;;;;;4968487;28;20482;-43
2021/12/23 02:35:50;;;;;;;21.70;13.17;;;-1.00;82.50;;;;;;4965103;28;20461;-44
2021/12/23 02:38:17;;;;;;;23.57;15.53;;;-1.00;82.60;;;;;;4963805;28;20976;-44
2021/12/23 02:40:44;;;;;;;26.13;15.90;;;-1.00;82.70;;;;;;4966927;28;20459;-44
2021/12/23 02:43:14;;;;;;;20.10;14.07;;;-1.10;82.70;;;;;;4970032;28;20462;-43
2021/12/23 02:45:43;;;;;;;20.40;14.27;;;-1.10;82.80;;;;;;4962899;28;20469;-44
2021/12/23 02:48:13;;;;;;;21.97;16.10;;;-1.00;82.90;;;;;;4967415;28;20536;-44
2021/12/23 02:50:41;;;;;;;20.47;14.70;;;-1.10;83.10;;;;;;4965756;28;20857;-44
2021/12/23 02:53:08;;;;;;;22.07;15.30;;;-1.10;83.30;;;;;;4965164;28;20450;-43
2021/12/23 02:55:35;;;;;;;22.47;16.50;;;-1.10;83.50;;;;;;4964258;28;20458;-44
2021/12/23 02:58:02;;;;;;;23.40;15.07;;;-1.10;83.80;;;;;;4962449;28;20466;-44
2021/12/23 03:00:30;;;;;;;23.60;15.67;;;-1.00;83.50;;;;;;4965115;28;20466;-44
2021/12/23 03:02:57;;;;;;;21.40;14.43;;;-1.10;83.60;;;;;;4962927;28;20458;-44
2021/12/23 03:05:25;;;;;;;22.90;16.10;;;-1.10;83.90;;;;;;4980707;28;20459;-44
2021/12/23 03:07:51;;;;;;;22.17;17.03;;;-1.00;83.90;;;;;;4967818;28;20847;-44
2021/12/23 03:10:22;;;;;;;23.30;15.37;;;-1.00;83.50;;;;;;4962958;28;20459;-44
2021/12/23 03:12:49;;;;;;;25.07;15.67;;;-1.00;83.50;;;;;;4962970;28;20482;-44
2021/12/23 03:15:17;;;;;;;23.30;15.37;;;-1.00;83.60;;;;;;4969132;28;20545;-44
2021/12/23 03:17:44;;;;;;;21.73;14.90;;;-1.00;83.40;;;;;;4965432;28;20939;-44
2021/12/23 03:20:11;;;;;;;21.23;16.30;;;-0.90;83.30;;;;;;4963884;28;20569;-43
2021/12/23 03:22:38;;;;;;;31.33;15.90;;;-0.90;83.40;;;;;;4966466;28;20462;-43
2021/12/23 03:25:05;;;;;;;34.17;17.77;;;-0.90;83.30;;;;;;4967085;28;20462;-43
2021/12/23 03:27:32;;;;;;;26.83;17.10;;;-0.80;83.40;;;;;;4969883;28;20505;-43
2021/12/23 03:29:59;;;;;;;26.97;16.17;;;-0.80;83.40;;;;;;4965801;28;20469;-43
2021/12/23 03:32:26;;;;;;;23.30;15.80;;;-0.80;83.20;;;;;;4980616;28;20482;-44
2021/12/23 03:34:53;;;;;;;24.13;15.53;;;-0.80;83.10;;;;;;4965956;28;20454;-46
2021/12/23 03:37:19;;;;;;;24.63;17.20;;;-0.80;83.30;;;;;;4963964;28;21018;-46
2021/12/23 03:39:50;;;;;;;20.33;16.10;;;-0.90;83.40;;;;;;4979812;28;20545;-46
2021/12/23 03:42:18;;;;;;;24.47;17.63;;;-0.90;83.70;;;;;;4965124;28;20474;-46
2021/12/23 03:44:45;;;;;;;27.60;16.80;;;-0.90;83.70;;;;;;4968675;28;20537;-46
2021/12/23 03:47:12;;;;;;;27.23;18.93;;;-0.90;83.60;;;;;;4961255;28;20478;-46
2021/12/23 03:49:39;;;;;;;31.13;18.07;;;-0.90;83.70;;;;;;4964932;28;20546;-46
2021/12/23 03:52:05;;;;;;;28.13;17.63;;;-0.90;83.70;;;;;;4969244;28;20458;-46
2021/12/23 03:54:32;;;;;;;26.43;16.33;;;-0.90;83.60;;;;;;4963906;28;20999;-46
2021/12/23 03:56:59;;;;;;;25.00;15.60;;;-0.90;83.60;;;;;;4962743;28;20455;-46
2021/12/23 03:59:26;;;;;;;26.63;16.83;;;-0.90;83.60;;;;;;4965773;28;20496;-45
2021/12/23 04:01:53;;;;;;;20.90;16.57;;;-0.90;83.60;;;;;;4965012;28;20832;-45
2021/12/23 04:04:20;;;;;;;28.57;16.57;;;-0.90;83.70;;;;;;4965137;28;21068;-45
2021/12/23 04:06:46;;;;;;;27.07;18.00;;;-0.80;83.50;;;;;;4964798;28;20472;-46
2021/12/23 04:09:13;;;;;;;28.97;18.57;;;-0.80;83.50;;;;;;4966895;28;21021;-46
2021/12/23 04:11:40;;;;;;;34.73;19.60;;;-0.80;83.40;;;;;;4966140;28;20457;-46
2021/12/23 04:14:07;;;;;;;34.93;17.73;;;-0.80;83.50;;;;;;4964469;28;20442;-46
2021/12/23 04:16:35;;;;;;;29.67;17.53;;;-0.80;83.50;;;;;;4964743;28;20465;-46
2021/12/23 04:19:06;;;;;;;31.37;18.53;;;-0.80;83.50;;;;;;4964500;28;20458;-46
2021/12/23 04:21:35;;;;;;;27.10;17.50;;;-0.80;83.50;;;;;;4965193;28;20489;-46
2021/12/23 04:24:02;;;;;;;32.53;20.80;;;-0.80;83.50;;;;;;4961618;28;20454;-46
2021/12/23 04:26:29;;;;;;;34.07;20.27;;;-0.80;83.40;;;;;;4979919;28;20465;-46
2021/12/23 04:28:56;;;;;;;40.80;21.77;;;-0.70;83.20;;;;;;4965385;28;21014;-46
2021/12/23 04:31:24;;;;;;;29.17;19.43;;;-0.80;83.10;;;;;;4963366;28;20585;-46
2021/12/23 04:33:53;;;;;;;36.13;19.17;;;-0.80;83.20;;;;;;4967283;28;20533;-46
2021/12/23 04:36:20;;;;;;;36.17;19.50;;;-0.70;83.10;;;;;;4963925;28;20488;-46
2021/12/23 04:38:47;;;;;;;38.20;20.57;;;-0.70;83.20;;;;;;4964403;28;20473;-45
2021/12/23 04:41:15;;;;;;;35.60;19.03;;;-0.70;83.10;;;;;;4980509;28;20470;-46
2021/12/23 04:43:43;;;;;;;28.13;20.00;;;-0.70;82.90;;;;;;4968501;28;20468;-46
2021/12/23 04:46:10;;;;;;;33.23;20.13;;;-0.70;82.80;;;;;;4966234;28;20461;-45
2021/12/23 04:48:38;;;;;;;33.90;21.17;;;-0.70;82.90;;;;;;4967711;28;20501;-46
2021/12/23 04:51:05;;;;;;;36.63;20.70;;;-0.70;83.00;;;;;;4962373;28;20454;-46
2021/12/23 04:53:32;;;;;;;34.70;19.70;;;-0.70;82.70;;;;;;4963869;28;20473;-46
2021/12/23 04:55:59;;;;;;;34.87;20.27;;;-0.60;82.50;;;;;;4963426;28;20476;-46
2021/12/23 04:58:25;;;;;;;32.77;19.60;;;-0.60;82.40;;;;;;4962365;28;20849;-46
2021/12/23 05:00:53;;;;;;;34.17;19.60;;;-0.70;82.40;;;;;;4962436;28;20470;-46
2021/12/23 05:03:22;;;;;;;32.67;19.80;;;-0.60;82.30;;;;;;4965157;28;20454;-46
2021/12/23 05:05:49;;;;;;;36.90;23.10;;;-0.60;82.20;;;;;;4982813;28;20454;-46
2021/12/23 05:08:18;;;;;;;34.43;20.87;;;-0.70;82.30;;;;;;4969439;28;20904;-46
2021/12/23 05:10:45;;;;;;;33.40;20.30;;;-0.70;82.50;;;;;;4981110;28;20544;-46
2021/12/23 05:13:13;;;;;;;33.07;20.70;;;-0.70;82.60;;;;;;4961822;28;20459;-46
2021/12/23 05:15:40;;;;;;;30.57;20.97;;;-0.70;82.60;;;;;;4968532;28;20533;-46
2021/12/23 05:18:08;;;;;;;35.87;21.80;;;-0.70;82.50;;;;;;4965083;28;20927;-46
2021/12/23 05:20:35;;;;;;;33.60;20.17;;;-0.70;82.30;;;;;;4979542;28;20473;-46
2021/12/23 05:23:02;;;;;;;27.90;19.87;;;-0.80;82.60;;;;;;4964480;28;20466;-46
2021/12/23 05:25:29;;;;;;;32.07;22.20;;;-0.70;82.50;;;;;;4962800;28;20499;-46
2021/12/23 05:27:58;;;;;;;33.03;19.90;;;-0.70;82.60;;;;;;4963986;28;20486;-46
2021/12/23 05:30:25;;;;;;;27.93;18.70;;;-0.70;82.60;;;;;;4963146;28;20789;-46
2021/12/23 05:32:52;;;;;;;34.13;20.50;;;-0.60;82.20;;;;;;4968070;28;20438;-46
2021/12/23 05:35:21;;;;;;;34.90;20.03;;;-0.70;82.20;;;;;;4960324;28;20468;-46
2021/12/23 05:37:48;;;;;;;26.77;19.00;;;-0.60;82.00;;;;;;4960689;28;20467;-46
2021/12/23 05:40:17;;;;;;;32.37;18.73;;;-0.60;82.00;;;;;;4967916;28;20455;-46
2021/12/23 05:42:44;;;;;;;31.53;20.00;;;-0.70;82.20;;;;;;4962510;28;20825;-46
2021/12/23 05:45:12;;;;;;;24.87;17.17;;;-0.60;82.20;;;;;;4963726;28;20457;-46
2021/12/23 05:47:39;;;;;;;35.50;20.03;;;-0.60;82.00;;;;;;4966792;28;20496;-46
2021/12/23 05:50:07;;;;;;;31.33;20.10;;;-0.60;82.00;;;;;;4965672;28;20447;-46
2021/12/23 05:52:34;;;;;;;31.00;18.50;;;-0.60;82.10;;;;;;4967463;28;20548;-46
2021/12/23 05:55:02;;;;;;;31.37;19.73;;;-0.70;82.00;;;;;;4964904;28;20453;-46
2021/12/23 05:57:29;;;;;;;36.40;21.07;;;-0.60;82.10;;;;;;4959950;28;20491;-46
2021/12/23 05:59:57;;;;;;;32.87;19.67;;;-0.60;82.20;;;;;;4963476;28;20468;-46
2021/12/23 06:02:24;;;;;;;32.10;19.63;;;-0.60;82.10;;;;;;4963356;28;20990;-46
2021/12/23 06:04:51;;;;;;;34.03;19.70;;;-0.60;82.20;;;;;;4962775;28;20470;-46
2021/12/23 06:07:18;;;;;;;33.40;19.50;;;-0.60;82.10;;;;;;4965332;28;20470;-46
2021/12/23 06:09:44;;;;;;;31.77;21.20;;;-0.60;81.80;;;;;;4962973;28;20521;-46
2021/12/23 06:12:12;;;;;;;32.27;20.50;;;-0.70;81.90;;;;;;4961294;28;20944;-46
2021/12/23 06:14:39;;;;;;;40.57;21.57;;;-0.60;82.00;;;;;;4962750;28;20465;-46
2021/12/23 06:17:05;;;;;;;28.37;19.93;;;-0.70;81.80;;;;;;4962416;28;20457;-46
2021/12/23 06:19:32;;;;;;;37.40;21.30;;;-0.60;81.70;;;;;;4961846;28;20458;-46
2021/12/23 06:21:59;;;;;;;36.30;21.00;;;-0.60;81.80;;;;;;4963788;28;20493;-46
2021/12/23 06:24:25;;;;;;;33.97;20.97;;;-0.60;81.90;;;;;;4964981;28;20511;-46
2021/12/23 06:26:52;;;;;;;35.03;22.00;;;-0.60;81.90;;;;;;4964971;28;20458;-46
2021/12/23 06:29:19;;;;;;;34.20;20.93;;;-0.60;81.90;;;;;;4962769;28;20486;-46
2021/12/23 06:31:46;;;;;;;38.27;21.23;;;-0.60;82.10;;;;;;4961909;28;20457;-45
2021/12/23 06:34:12;;;;;;;35.30;21.10;;;-0.60;82.20;;;;;;4962792;28;20457;-45
2021/12/23 06:36:39;;;;;;;39.70;24.93;;;-0.60;82.00;;;;;;4961421;28;20826;-46
2021/12/23 06:39:06;;;;;;;40.93;22.27;;;-0.60;82.10;;;;;;4976012;28;20466;-46
2021/12/23 06:41:34;;;;;;;38.67;21.87;;;-0.60;82.40;;;;;;4962212;28;20959;-46
2021/12/23 06:44:00;;;;;;;43.97;24.60;;;-0.60;82.70;;;;;;4963339;28;20485;-46
2021/12/23 06:46:27;;;;;;;36.07;23.73;;;-0.60;82.50;;;;;;4961362;28;20827;-46
2021/12/23 06:48:54;;;;;;;39.10;23.20;;;-0.60;82.60;;;;;;4965741;28;20485;-45
2021/12/23 06:51:21;;;;;;;47.70;23.63;;;-0.60;82.10;;;;;;4970740;28;20458;-46
2021/12/23 06:53:48;;;;;;;43.00;20.77;;;-0.60;82.10;;;;;;4964650;28;20817;-45
2021/12/23 06:56:17;;;;;;;43.73;23.60;;;-0.70;82.40;;;;;;4968369;28;20951;-46
2021/12/23 06:58:48;;;;;;;38.13;22.83;;;-0.70;82.60;;;;;;4965617;28;20461;-45
2021/12/23 07:01:18;;;;;;;57.50;28.67;;;-0.80;82.70;;;;;;4967343;28;20458;-45
2021/12/23 07:04:12;;;;;;;48.03;24.47;;;-0.80;83.10;;;;;;4981063;28;21123;-45
2021/12/23 07:06:35;;;;;;;45.13;25.10;;;-0.90;83.10;;;;;;4966043;28;20457;-46
2021/12/23 07:09:04;;;;;;;40.40;21.87;;;-1.00;83.50;;;;;;4968996;28;20485;-46
2021/12/23 07:11:33;;;;;;;46.93;24.53;;;-1.00;84.20;;;;;;4964761;28;20966;-46
2021/12/23 07:14:00;;;;;;;46.80;23.07;;;-1.00;84.50;;;;;;4966143;28;20457;-45
2021/12/23 07:16:27;;;;;;;46.93;23.93;;;-1.00;84.70;;;;;;4963991;28;20451;-45
2021/12/23 07:18:54;;;;;;;45.70;24.00;;;-1.00;84.40;;;;;;4979911;28;20454;-45
2021/12/23 07:21:21;;;;;;;49.83;26.73;;;-1.00;84.60;;;;;;4965456;28;20482;-45
2021/12/23 07:23:48;;;;;;;47.70;22.80;;;-0.90;84.80;;;;;;4966946;28;20466;-46
2021/12/23 07:26:17;;;;;;;49.77;25.07;;;-0.80;84.40;;;;;;4966218;28;20467;-46
2021/12/23 07:28:44;;;;;;;45.27;24.13;;;-0.80;83.90;;;;;;4962432;28;20936;-46
2021/12/23 07:31:10;;;;;;;42.17;24.13;;;-0.80;84.30;;;;;;4964400;28;20446;-46
2021/12/23 07:33:38;;;;;;;46.77;24.20;;;-0.80;84.60;;;;;;4964201;28;20455;-46
2021/12/23 07:36:05;;;;;;;40.27;22.80;;;-0.80;84.60;;;;;;4968114;28;20537;-45
2021/12/23 07:38:34;;;;;;;54.87;27.50;;;-0.70;84.00;;;;;;4958809;28;20533;-46
2021/12/23 07:41:00;;;;;;;52.13;28.43;;;-0.60;83.70;;;;;;4963616;28;20985;-46
2021/12/23 07:46:02;;;;;;;40.47;23.57;;;-0.60;83.30;;;;;;4966447;28;20565;-46
2021/12/23 07:48:30;;;;;;;38.27;22.23;;;-0.60;83.10;;;;;;4963770;28;20495;-45
2021/12/23 07:50:59;;;;;;;45.47;21.57;;;-0.60;83.40;;;;;;4964718;28;20450;-46
2021/12/23 07:53:26;;;;;;;40.57;25.03;;;-0.60;83.30;;;;;;4963408;28;20835;-46
2021/12/23 07:55:53;;;;;;;47.27;27.07;;;-0.60;83.00;;;;;;4949744;28;20500;-46
2021/12/23 07:58:19;;;;;;;46.17;22.70;;;-0.70;83.50;;;;;;4965759;28;20460;-46
2021/12/23 08:00:46;;;;;;;49.43;24.17;;;-0.60;83.40;;;;;;4967851;28;20458;-46
2021/12/23 08:03:13;;;;;;;50.10;24.80;;;-0.60;83.50;;;;;;4965944;28;20505;-45
2021/12/23 08:05:41;;;;;;;55.70;26.53;;;-0.60;83.30;;;;;;4963761;28;20958;-45
2021/12/23 08:08:08;;;;;;;45.97;26.73;;;-0.60;83.10;;;;;;4950942;28;20824;-46
2021/12/23 08:10:35;;;;;;;53.07;24.90;;;-0.60;82.60;;;;;;4965594;28;20458;-46
2021/12/23 08:13:02;;;;;;;41.80;22.13;;;-0.60;82.60;;;;;;4982236;28;20853;-45
2021/12/23 08:15:29;;;;;;;46.27;22.33;;;-0.60;83.00;;;;;;4962982;28;20462;-45
2021/12/23 08:17:56;;;;;;;44.00;23.63;;;-0.60;83.30;;;;;;4964423;28;20462;-45
2021/12/23 08:20:22;;;;;;;49.10;27.27;;;-0.60;83.50;;;;;;4965975;28;20474;-45
2021/12/23 08:22:49;;;;;;;46.53;25.17;;;-0.70;83.10;;;;;;4966533;28;20474;-45
2021/12/23 08:25:16;;;;;;;43.33;27.53;;;-0.70;83.50;;;;;;4963745;28;20470;-45
2021/12/23 08:27:43;;;;;;;43.77;24.93;;;-0.60;83.50;;;;;;4964547;28;20458;-45
2021/12/23 08:30:12;;;;;;;50.50;26.57;;;-0.60;83.50;;;;;;4961180;28;20502;-46
2021/12/23 08:32:39;;;;;;;42.97;24.67;;;-0.60;83.40;;;;;;4962445;28;20499;-46
2021/12/23 08:35:07;;;;;;;50.00;25.90;;;-0.50;83.00;;;;;;4959164;28;21179;-46
2021/12/23 08:37:34;;;;;;;44.80;22.80;;;-0.50;82.40;;;;;;4962275;28;20534;-46
2021/12/23 08:40:02;;;;;;;41.43;23.53;;;-0.50;82.40;;;;;;4964849;28;20470;-45
2021/12/23 08:42:29;;;;;;;45.00;23.40;;;-0.60;82.70;;;;;;4963475;28;20474;-46
2021/12/23 08:44:56;;;;;;;43.10;21.80;;;-0.60;82.70;;;;;;4966983;28;20462;-46
2021/12/23 08:47:22;;;;;;;39.53;22.30;;;-0.60;82.60;;;;;;4965106;28;20466;-45
2021/12/23 08:49:49;;;;;;;53.30;24.97;;;-0.60;82.90;;;;;;4964748;28;20494;-45
2021/12/23 08:52:16;;;;;;;46.83;24.67;;;-0.70;83.10;;;;;;4963619;28;20466;-46
2021/12/23 08:54:43;;;;;;;48.37;23.50;;;-0.70;83.60;;;;;;4962741;28;20577;-46
2021/12/23 08:57:10;;;;;;;39.20;22.60;;;-0.70;83.80;;;;;;4961817;28;20454;-45
2021/12/23 08:59:37;;;;;;;41.10;25.30;;;-0.60;83.90;;;;;;4961993;28;22080;-45
2021/12/23 09:02:04;;;;;;;47.43;24.00;;;-0.60;83.10;;;;;;4962023;28;20472;-45
2021/12/23 09:04:32;;;;;;;40.97;24.20;;;-0.60;83.00;;;;;;4962588;28;20872;-46
2021/12/23 09:06:59;;;;;;;41.57;24.77;;;-0.60;82.80;;;;;;4957805;28;20470;-45
2021/12/23 09:09:30;;;;;;;45.70;24.30;;;-0.60;82.70;;;;;;4961598;28;20580;-46
2021/12/23 09:11:57;;;;;;;38.53;22.53;;;-0.60;83.40;;;;;;4965148;28;20463;-46
2021/12/23 09:14:24;;;;;;;46.40;23.80;;;-0.60;83.50;;;;;;4961968;28;20469;-46
2021/12/23 09:16:51;;;;;;;40.90;22.40;;;-0.60;83.90;;;;;;4963325;28;20459;-44
2021/12/23 09:19:18;;;;;;;47.63;24.87;;;-0.50;83.90;;;;;;4963982;28;21002;-46
2021/12/23 09:21:45;;;;;;;51.30;24.30;;;-0.50;83.10;;;;;;4961203;28;20492;-47
2021/12/23 09:24:12;;;;;;;46.10;27.20;;;-0.50;83.30;;;;;;4961420;28;20500;-47
2021/12/23 09:26:50;;;;;;;50.67;25.60;;;-0.50;83.50;;;;;;4959180;28;20845;-47
2021/12/23 09:32:40;;;;;;;46.50;25.23;;;-0.50;83.80;;;;;;4960045;28;20505;-47
2021/12/23 09:34:53;;;;;;;50.37;25.70;;;-0.40;82.80;;;;;;4962053;28;20462;-46
2021/12/23 09:37:21;;;;;;;48.27;24.77;;;-0.50;83.10;;;;;;4964711;28;21047;-46
2021/12/23 09:39:53;;;;;;;49.83;27.20;;;-0.50;83.70;;;;;;4963192;28;20825;-46
2021/12/23 09:42:29;;;;;;;50.83;24.60;;;-0.50;83.90;;;;;;4967735;28;20469;-46
2021/12/23 09:44:59;;;;;;;47.37;23.90;;;-0.50;83.90;;;;;;4965254;28;20477;-46
2021/12/23 09:47:33;;;;;;;49.40;24.67;;;-0.40;83.80;;;;;;4981676;28;20469;-46
2021/12/23 09:50:03;;;;;;;50.63;24.77;;;-0.30;83.30;;;;;;4963308;28;20487;-45
2021/12/23 09:52:34;;;;;;;49.97;24.00;;;-0.30;83.10;;;;;;4948018;28;20473;-45
2021/12/23 09:55:05;;;;;;;44.27;25.73;;;-0.30;82.90;;;;;;4963586;28;20532;-46
2021/12/23 09:57:32;;;;;;;41.57;25.27;;;-0.30;83.20;;;;;;4961476;28;20919;-45
2021/12/23 09:59:59;;;;;;;47.43;26.43;;;-0.20;83.00;;;;;;4962355;28;20462;-45
2021/12/23 10:02:26;;;;;;;43.73;24.20;;;-0.20;82.90;;;;;;4958652;28;20466;-45
2021/12/23 10:04:53;;;;;;;48.47;24.77;;;-0.10;82.70;;;;;;4959827;28;20465;-46
2021/12/23 10:07:20;;;;;;;43.30;22.57;;;-0.10;82.20;;;;;;4960302;28;20466;-46
2021/12/23 10:10:00;;;;;;;44.10;23.57;;;0.00;81.90;;;;;;4962082;28;20490;-46
2021/12/23 10:38:19;;;;;;;48.30;26.23;;;0.10;82.70;;;;;;4964350;28;20578;-47
2021/12/23 10:40:50;;;;;;;44.77;24.63;;;0.20;82.30;;;;;;4967194;28;20466;-46
2021/12/23 10:43:41;;;;;;;40.50;23.17;;;0.30;81.60;;;;;;4966935;28;20481;-46
2021/12/23 10:46:14;;;;;;;41.10;22.70;;;0.30;81.30;;;;;;4965858;28;20470;-46
2021/12/23 10:48:47;;;;;;;43.23;23.30;;;0.30;81.80;;;;;;4961633;28;22156;-46
2021/12/23 10:51:18;;;;;;;39.07;24.87;;;0.30;82.00;;;;;;4963725;28;20502;-46
2021/12/23 10:59:19;;;;;;;41.73;23.40;;;0.40;81.60;;;;;;4968841;28;20839;-46
2021/12/23 11:02:05;;;;;;;51.23;26.20;;;0.40;81.80;;;;;;4964122;28;20466;-45
2021/12/23 11:04:51;;;;;;;41.87;24.70;;;0.40;82.00;;;;;;4971791;28;20458;-46
2021/12/23 11:07:25;;;;;;;48.30;25.73;;;0.50;81.80;;;;;;4962064;28;20544;-45
2021/12/23 11:10:10;;;;;;;55.77;27.97;;;0.50;81.90;;;;;;4963268;28;20497;-46
2021/12/23 11:37:39;;;;;;;39.77;22.60;;;0.80;81.20;;;;;;4965579;28;20824;-46
2021/12/23 11:40:27;;;;;;;43.67;25.30;;;0.80;81.30;;;;;;4966606;28;20463;-45
2021/12/23 11:45:38;;;;;;;40.63;24.27;;;0.80;81.10;;;;;;4962155;28;20466;-46
2021/12/23 11:48:07;;;;;;;53.50;24.97;;;0.90;80.70;;;;;;4965487;28;20560;-46
2021/12/23 11:50:42;;;;;;;40.80;23.53;;;0.80;81.00;;;;;;4976237;28;20486;-46
2021/12/23 11:53:09;;;;;;;42.07;23.87;;;0.90;81.30;;;;;;4961224;28;20461;-46
2021/12/23 11:55:37;;;;;;;44.40;25.80;;;0.90;81.20;;;;;;4965456;28;21023;-46
2021/12/23 11:58:03;;;;;;;35.57;22.93;;;0.90;81.40;;;;;;4967282;28;20558;-46
2021/12/23 12:00:42;;;;;;;39.10;22.10;;;0.90;81.40;;;;;;4965559;28;20466;-46
2021/12/23 12:03:11;;;;;;;38.97;24.20;;;1.00;81.40;;;;;;4966256;28;20545;-46
2021/12/23 12:05:39;;;;;;;39.60;24.63;;;1.00;81.10;;;;;;4964555;28;20462;-46
2021/12/23 12:08:14;;;;;;;49.33;24.40;;;1.10;81.00;;;;;;4945868;28;20470;-46
2021/12/23 12:10:43;;;;;;;51.00;27.17;;;1.10;81.10;;;;;;4965154;28;21094;-46
2021/12/23 12:13:16;;;;;;;41.20;25.10;;;1.10;81.10;;;;;;4968560;28;20446;-46
2021/12/23 12:15:47;;;;;;;39.57;24.80;;;1.10;81.00;;;;;;4966284;28;20458;-46
2021/12/23 12:18:21;;;;;;;50.10;29.67;;;1.10;81.10;;;;;;4979083;28;20463;-46
2021/12/23 12:20:59;;;;;;;54.17;31.50;;;1.20;81.10;;;;;;4959997;28;20569;-46
2021/12/23 12:23:39;;;;;;;38.83;23.77;;;1.20;81.00;;;;;;4958773;28;21070;-46
2021/12/23 12:26:10;;;;;;;45.87;26.53;;;1.20;81.10;;;;;;4963467;28;20467;-46
2021/12/23 12:28:41;;;;;;;43.17;24.53;;;1.20;81.00;;;;;;4963364;28;20480;-47
2021/12/23 12:31:14;;;;;;;38.00;25.77;;;1.30;81.00;;;;;;4961240;28;20573;-46
2021/12/23 12:33:55;;;;;;;47.80;28.43;;;1.30;81.00;;;;;;4961084;28;20477;-46
2021/12/23 12:36:24;;;;;;;46.67;27.27;;;1.30;81.10;;;;;;4963648;28;20913;-46
2021/12/23 12:39:20;;;;;;;42.67;24.60;;;1.30;81.00;;;;;;4964174;28;20466;-46
2021/12/23 12:41:47;;;;;;;51.67;26.93;;;1.40;81.00;;;;;;4961248;28;20481;-46
2021/12/23 12:44:27;;;;;;;40.77;25.50;;;1.40;81.10;;;;;;4962322;28;20539;-45
2021/12/23 12:47:15;;;;;;;48.60;27.50;;;1.40;81.10;;;;;;4978641;28;20457;-45
2021/12/23 12:49:47;;;;;;;41.03;26.20;;;1.40;81.10;;;;;;4965125;28;20498;-46
2021/12/23 12:52:34;;;;;;;40.43;26.13;;;1.40;81.10;;;;;;4960972;28;20466;-46
2021/12/23 12:55:04;;;;;;;39.13;24.40;;;1.40;81.10;;;;;;4965452;28;21065;-46
2021/12/23 12:57:36;;;;;;;49.50;31.60;;;1.40;81.00;;;;;;4964790;28;22787;-46
2021/12/23 13:00:24;;;;;;;47.67;26.70;;;1.50;81.10;;;;;;4963173;28;20945;-46
2021/12/23 13:02:55;;;;;;;45.97;25.20;;;1.50;81.10;;;;;;4964685;28;21008;-47
2021/12/23 13:05:28;;;;;;;38.10;23.43;;;1.50;81.10;;;;;;4959799;28;21126;-45
2021/12/23 13:07:55;;;;;;;40.93;23.10;;;1.50;80.80;;;;;;4958595;28;20496;-46
2021/12/23 13:10:29;;;;;;;41.73;24.40;;;1.60;80.80;;;;;;4963334;28;20521;-46
2021/12/23 13:13:00;;;;;;;42.27;25.23;;;1.60;80.60;;;;;;4964459;28;20458;-46
2021/12/23 13:15:39;;;;;;;44.40;28.23;;;1.60;80.70;;;;;;4962204;28;20486;-46
2021/12/23 13:18:18;;;;;;;37.90;23.67;;;1.60;80.80;;;;;;4960639;28;20960;-46
2021/12/23 13:20:58;;;;;;;42.40;23.53;;;1.60;80.80;;;;;;4962482;28;20506;-46
2021/12/23 13:23:36;;;;;;;41.63;24.13;;;1.60;81.10;;;;;;4962479;28;20476;-46
2021/12/23 13:26:10;;;;;;;39.67;23.80;;;1.60;80.80;;;;;;4980372;28;20466;-46
2021/12/23 13:28:40;;;;;;;38.47;23.17;;;1.60;81.10;;;;;;4965489;28;20462;-46
2021/12/23 13:31:14;;;;;;;43.87;24.60;;;1.70;80.90;;;;;;4966036;28;20486;-46
2021/12/23 13:34:10;;;;;;;43.07;25.00;;;1.60;81.20;;;;;;4963087;28;20461;-46
2021/12/23 13:36:46;;;;;;;37.83;23.80;;;1.70;81.20;;;;;;4964418;28;21002;-46
2021/12/23 13:39:19;;;;;;;34.07;22.73;;;1.60;81.40;;;;;;4964573;28;20496;-46
2021/12/23 13:41:55;;;;;;;43.50;25.20;;;1.70;81.50;;;;;;4960166;28;20822;-46
2021/12/23 13:44:38;;;;;;;42.47;25.70;;;1.70;81.50;;;;;;4965928;28;20469;-46
2021/12/23 13:47:12;;;;;;;38.40;23.70;;;1.70;81.60;;;;;;4976782;28;20534;-46
2021/12/23 13:49:58;;;;;;;42.57;22.27;;;1.70;81.70;;;;;;4962448;28;20463;-47
2021/12/23 13:52:43;;;;;;;44.30;26.37;;;1.70;81.70;;;;;;4962904;28;20463;-46
2021/12/23 13:55:23;;;;;;;34.90;23.10;;;1.70;81.70;;;;;;4980666;28;20450;-46